Time;durP1;ratioP1;P1;durP2;ratioP2;P2;SDS_P1;SDS_P2;PMS_P1;PMS_P2;Temp;Humidity;BMP_temperature;BMP_pressure;BME280_temperature;BME280_humidity;BME280_pressure;Samples;Min_cycle;Max_cycle;Signal;HPM_P1;HPM_P2
2022/11/30 00:01:50;;;;;;;20.27;12.05;;;;;;;-143.48;92.13;118439.88;5035658;28;20500;-42
2022/11/30 00:04:16;;;;;;;24.27;12.52;;;;;;;-143.48;92.86;118439.88;5035537;28;20027;-40
2022/11/30 00:06:41;;;;;;;21.33;12.25;;;;;;;-143.48;93.41;118439.88;5035412;28;20030;-39
2022/11/30 00:09:07;;;;;;;19.52;12.10;;;;;;;-143.48;93.58;118439.88;5035234;28;20468;-39
2022/11/30 00:11:32;;;;;;;22.05;12.00;;;;;;;-143.48;93.19;118439.88;5035148;28;20055;-39
2022/11/30 00:13:58;;;;;;;22.45;12.90;;;;;;;-143.48;93.69;118439.88;5035425;28;20494;-40
2022/11/30 00:16:23;;;;;;;21.30;12.13;;;;;;;-143.48;94.51;118439.88;5033364;28;20516;-40
2022/11/30 00:18:49;;;;;;;25.40;12.65;;;;;;;-143.48;92.64;118439.88;5034501;28;20091;-40
2022/11/30 00:21:16;;;;;;;25.08;12.80;;;;;;;-143.48;91.44;118439.88;5033133;28;20112;-41
2022/11/30 00:23:43;;;;;;;24.38;13.38;;;;;;;-143.48;91.87;118439.88;5032671;28;20531;-40
2022/11/30 00:26:13;;;;;;;23.30;13.65;;;;;;;-143.48;92.23;118439.88;5032688;28;20072;-40
2022/11/30 00:28:39;;;;;;;23.90;14.02;;;;;;;-143.48;92.15;118439.88;5032750;28;20025;-39
2022/11/30 00:31:12;;;;;;;24.40;13.38;;;;;;;-143.48;92.13;118439.88;5032498;28;20601;-40
2022/11/30 00:33:37;;;;;;;28.65;14.80;;;;;;;-143.48;90.76;118439.88;5033117;28;20041;-39
2022/11/30 00:36:06;;;;;;;29.02;13.38;;;;;;;-143.48;90.99;118439.88;5033796;28;20032;-40
2022/11/30 00:38:32;;;;;;;26.90;14.40;;;;;;;-143.48;90.95;118439.88;5034608;28;20029;-39
2022/11/30 00:40:59;;;;;;;24.23;14.10;;;;;;;-143.48;91.17;118439.88;5034615;28;20496;-40
2022/11/30 00:43:24;;;;;;;21.75;13.68;;;;;;;-143.48;90.43;118439.88;5034788;28;20032;-40
2022/11/30 00:45:50;;;;;;;25.33;14.50;;;;;;;-143.48;90.74;118439.88;5035259;28;20103;-40
2022/11/30 00:48:15;;;;;;;27.23;13.45;;;;;;;-143.48;91.64;118439.88;5033886;28;20030;-39
2022/11/30 00:50:40;;;;;;;23.25;13.77;;;;;;;-143.48;91.83;118439.88;5033870;28;20021;-39
2022/11/30 00:53:06;;;;;;;24.08;13.63;;;;;;;-143.48;91.69;118439.88;5033610;28;20419;-39
2022/11/30 00:55:32;;;;;;;23.23;13.68;;;;;;;-143.48;92.58;118439.88;5034486;28;20022;-39
2022/11/30 00:57:57;;;;;;;21.77;14.05;;;;;;;-143.48;92.03;118439.88;5032205;28;20020;-39
2022/11/30 01:00:23;;;;;;;25.48;14.40;;;;;;;-143.48;92.53;118439.88;5032092;28;20033;-39
2022/11/30 01:02:53;;;;;;;24.80;13.85;;;;;;;-143.48;93.12;118439.88;5032347;28;20033;-39
2022/11/30 01:05:18;;;;;;;24.17;14.05;;;;;;;-143.48;93.46;118439.88;5031972;28;20113;-39
2022/11/30 01:07:43;;;;;;;22.60;13.98;;;;;;;-143.48;93.09;118439.88;5031799;28;20105;-39
2022/11/30 01:10:09;;;;;;;21.92;13.77;;;;;;;-143.48;93.03;118439.88;5031962;28;20029;-47
2022/11/30 01:12:34;;;;;;;24.67;14.15;;;;;;;-143.48;93.41;118439.88;5032495;28;20029;-39
2022/11/30 01:14:59;;;;;;;24.77;14.52;;;;;;;-143.48;93.54;118439.88;5034200;28;20028;-39
2022/11/30 01:17:25;;;;;;;27.02;14.20;;;;;;;-143.48;93.56;118439.88;5033902;28;20021;-40
2022/11/30 01:19:50;;;;;;;22.17;13.82;;;;;;;-143.48;93.87;118439.88;5034086;28;20032;-41
2022/11/30 01:22:15;;;;;;;22.65;13.88;;;;;;;-143.48;94.38;118439.88;5034350;28;20026;-40
2022/11/30 01:24:40;;;;;;;25.77;14.45;;;;;;;-143.48;95.09;118439.88;5033880;28;20472;-39
2022/11/30 01:27:06;;;;;;;23.05;13.38;;;;;;;-143.48;95.14;118439.88;5033195;28;20032;-39
2022/11/30 01:29:31;;;;;;;28.90;14.52;;;;;;;-143.48;95.42;118439.88;5033447;28;20400;-39
2022/11/30 01:31:56;;;;;;;24.40;13.90;;;;;;;-143.48;94.92;118439.88;5033953;28;20033;-40
2022/11/30 01:34:22;;;;;;;26.90;13.75;;;;;;;-143.48;94.34;118439.88;5033828;28;20017;-39
2022/11/30 01:36:47;;;;;;;25.88;13.93;;;;;;;-143.48;93.85;118439.88;5033897;28;20152;-39
2022/11/30 01:39:12;;;;;;;25.95;15.13;;;;;;;-143.48;93.48;118439.88;5033745;28;20026;-39
2022/11/30 01:41:38;;;;;;;26.65;14.05;;;;;;;-143.48;93.69;118439.88;5034110;28;20018;-39
2022/11/30 01:44:03;;;;;;;26.70;14.32;;;;;;;-143.48;93.82;118439.88;5033763;28;20026;-40
2022/11/30 01:46:31;;;;;;;26.10;13.65;;;;;;;-143.48;93.86;118439.88;5033412;28;20032;-39
2022/11/30 01:49:08;;;;;;;24.38;13.30;;;;;;;-143.48;94.51;118439.88;5033646;28;20435;-39
2022/11/30 01:51:49;;;;;;;25.65;13.75;;;;;;;-143.48;94.84;118439.88;5032374;28;20421;-40
2022/11/30 01:54:19;;;;;;;26.35;13.80;;;;;;;-143.48;95.30;118439.88;5033024;28;20029;-39
2022/11/30 01:56:49;;;;;;;24.30;13.55;;;;;;;-143.48;95.19;118439.88;5032190;28;20021;-40
2022/11/30 01:59:17;;;;;;;24.58;13.73;;;;;;;-143.48;95.34;118439.88;5031164;28;20030;-40
2022/11/30 02:01:43;;;;;;;24.48;14.07;;;;;;;-143.48;95.10;118439.88;5031111;28;20080;-39
2022/11/30 02:04:19;;;;;;;26.30;13.75;;;;;;;-143.48;95.23;118439.88;5031050;28;20036;-47
2022/11/30 02:06:46;;;;;;;23.88;14.00;;;;;;;-143.48;95.40;118439.88;5031321;28;20021;-39
2022/11/30 02:09:12;;;;;;;24.48;13.63;;;;;;;-143.48;95.57;118439.88;5029781;28;20021;-39
2022/11/30 02:11:37;;;;;;;27.05;13.93;;;;;;;-143.48;95.50;118439.88;5031043;28;20025;-40
2022/11/30 02:14:18;;;;;;;25.38;13.85;;;;;;;-143.48;95.65;118439.88;5031071;28;20018;-39
2022/11/30 02:16:46;;;;;;;22.90;13.35;;;;;;;-143.48;95.13;118439.88;5030903;28;20027;-39
2022/11/30 02:19:36;;;;;;;25.90;14.20;;;;;;;-143.48;94.83;118439.88;5031271;28;20041;-39
2022/11/30 02:22:22;;;;;;;21.67;13.50;;;;;;;-143.48;95.48;118439.88;5033613;28;20022;-39
2022/11/30 02:24:51;;;;;;;21.90;13.13;;;;;;;-143.48;95.50;118439.88;5033535;28;20372;-39
2022/11/30 02:27:53;;;;;;;25.35;14.80;;;;;;;-143.48;95.29;118439.88;5033210;28;20075;-39
2022/11/30 02:30:21;;;;;;;25.10;14.23;;;;;;;-143.48;95.37;118439.88;5032843;28;20045;-39
2022/11/30 02:33:25;;;;;;;23.25;13.60;;;;;;;-143.48;95.47;118439.88;5033009;28;20026;-39
2022/11/30 02:35:54;;;;;;;26.23;14.45;;;;;;;-143.48;95.59;118439.88;5011892;28;20045;-39
2022/11/30 02:38:21;;;;;;;27.52;13.77;;;;;;;-143.48;95.13;118439.88;5031049;28;20032;-39
2022/11/30 02:40:47;;;;;;;27.02;14.77;;;;;;;-143.48;95.31;118439.88;5036823;28;20069;-39
2022/11/30 02:43:14;;;;;;;26.45;13.95;;;;;;;-143.48;95.06;118439.88;5037064;28;20045;-40
2022/11/30 02:45:46;;;;;;;24.48;14.25;;;;;;;-143.48;95.01;118439.88;5036694;28;20025;-40
2022/11/30 02:48:16;;;;;;;29.47;14.50;;;;;;;-143.48;95.34;118439.88;5036648;28;20030;-39
2022/11/30 02:51:03;;;;;;;25.35;14.25;;;;;;;-143.48;94.18;118439.88;5036724;28;20476;-39
2022/11/30 02:53:29;;;;;;;25.58;14.73;;;;;;;-143.48;94.95;118439.88;5036676;28;20108;-39
2022/11/30 02:55:54;;;;;;;22.17;13.13;;;;;;;-143.48;95.26;118439.88;5036819;28;20068;-39
2022/11/30 02:58:20;;;;;;;30.25;14.60;;;;;;;-143.48;95.27;118439.88;5036768;28;20480;-39
2022/11/30 03:00:46;;;;;;;27.55;14.65;;;;;;;-143.48;94.97;118439.88;5051858;28;20075;-40
2022/11/30 03:03:11;;;;;;;23.33;14.02;;;;;;;-143.48;94.96;118439.88;5036727;28;20419;-40
2022/11/30 03:05:37;;;;;;;26.15;14.95;;;;;;;-143.48;95.21;118439.88;5037135;28;20025;-39
2022/11/30 03:08:02;;;;;;;28.70;15.20;;;;;;;-143.48;95.18;118439.88;5036426;28;20025;-39
2022/11/30 03:10:27;;;;;;;29.20;14.20;;;;;;;-143.48;95.45;118439.88;5036534;28;20025;-39
2022/11/30 03:12:56;;;;;;;22.13;13.25;;;;;;;-143.48;95.70;118439.88;5036338;28;20477;-39
2022/11/30 03:15:22;;;;;;;23.25;14.05;;;;;;;-143.48;95.94;118439.88;5036510;28;20361;-39
2022/11/30 03:17:47;;;;;;;24.15;13.32;;;;;;;-143.48;96.48;118439.88;5036005;28;20032;-39
2022/11/30 03:20:12;;;;;;;24.27;13.50;;;;;;;-143.48;96.12;118439.88;5036178;28;20495;-39
2022/11/30 03:22:37;;;;;;;24.88;13.38;;;;;;;-143.48;95.94;118439.88;5036346;28;20080;-39
2022/11/30 03:25:03;;;;;;;26.85;14.35;;;;;;;-143.48;95.93;118439.88;5036327;28;20041;-39
2022/11/30 03:27:28;;;;;;;23.73;13.82;;;;;;;-143.48;95.78;118439.88;5036184;28;20346;-39
2022/11/30 03:29:54;;;;;;;22.75;13.63;;;;;;;-143.48;95.37;118439.88;5034559;28;20049;-39
2022/11/30 03:32:19;;;;;;;26.20;14.30;;;;;;;-143.48;95.68;118439.88;5036104;28;20124;-39
2022/11/30 03:34:44;;;;;;;22.90;13.45;;;;;;;-143.48;96.08;118439.88;5036219;28;20037;-40
2022/11/30 03:37:09;;;;;;;24.13;14.02;;;;;;;-143.48;95.60;118439.88;5036054;28;20024;-39
2022/11/30 03:39:35;;;;;;;24.35;13.68;;;;;;;-143.48;96.03;118439.88;5036000;28;20373;-39
2022/11/30 03:42:00;;;;;;;31.58;14.35;;;;;;;-143.48;96.03;118439.88;5035649;28;20029;-39
2022/11/30 03:44:25;;;;;;;24.95;13.93;;;;;;;-143.48;96.28;118439.88;5035683;28;20032;-40
2022/11/30 03:46:51;;;;;;;28.80;13.27;;;;;;;-143.48;96.17;118439.88;5035854;28;20026;-39
2022/11/30 03:49:16;;;;;;;26.58;14.00;;;;;;;-143.48;96.50;118439.88;5035067;28;20029;-39
2022/11/30 03:51:41;;;;;;;25.98;14.05;;;;;;;-143.48;96.26;118439.88;5034204;28;20025;-39
2022/11/30 03:54:07;;;;;;;27.70;13.57;;;;;;;-143.48;96.37;118439.88;5035815;28;20025;-40
2022/11/30 03:56:32;;;;;;;28.02;13.77;;;;;;;-143.48;96.71;118439.88;5035788;28;20035;-39
2022/11/30 03:58:57;;;;;;;28.17;14.48;;;;;;;-143.48;96.88;118439.88;5035411;28;20029;-39
2022/11/30 04:01:22;;;;;;;24.92;14.23;;;;;;;-143.48;96.12;118439.88;5035572;28;20025;-39
2022/11/30 04:03:49;;;;;;;24.58;14.00;;;;;;;-143.48;95.79;118439.88;5035368;28;20444;-39
2022/11/30 04:06:15;;;;;;;27.10;14.68;;;;;;;-143.48;95.64;118439.88;5035325;28;20029;-39
2022/11/30 04:08:41;;;;;;;28.00;15.10;;;;;;;-143.48;95.34;118439.88;5035551;28;20024;-39
2022/11/30 04:11:07;;;;;;;29.50;15.38;;;;;;;-143.48;95.51;118439.88;5035477;28;20036;-41
2022/11/30 04:13:35;;;;;;;26.33;14.20;;;;;;;-143.48;95.23;118439.88;5035133;28;20026;-39
2022/11/30 04:16:01;;;;;;;23.90;14.00;;;;;;;-143.48;95.87;118439.88;5035145;28;20500;-39
2022/11/30 04:18:28;;;;;;;26.17;14.55;;;;;;;-143.48;96.24;118439.88;5035062;28;20070;-39
2022/11/30 04:20:55;;;;;;;28.75;14.98;;;;;;;-143.48;96.29;118439.88;5035312;28;20556;-39
2022/11/30 04:23:22;;;;;;;27.65;15.45;;;;;;;-143.48;96.20;118439.88;5035171;28;20021;-39
2022/11/30 04:25:48;;;;;;;28.52;14.38;;;;;;;-143.48;95.52;118439.88;5035194;28;20017;-39
2022/11/30 04:28:17;;;;;;;30.60;15.70;;;;;;;-143.48;95.46;118439.88;5034976;28;20026;-39
2022/11/30 04:30:44;;;;;;;29.30;14.73;;;;;;;-143.48;95.75;118439.88;5034696;28;20568;-39
2022/11/30 04:33:11;;;;;;;30.20;15.52;;;;;;;-143.48;95.90;118439.88;5035058;28;20032;-39
2022/11/30 04:35:47;;;;;;;27.77;15.15;;;;;;;-143.48;95.55;118439.88;5034972;28;20026;-39
2022/11/30 04:38:13;;;;;;;29.65;15.45;;;;;;;-143.48;95.49;118439.88;5034711;28;20029;-39
2022/11/30 04:40:42;;;;;;;30.88;15.30;;;;;;;-143.48;95.05;118439.88;5034662;28;20028;-39
2022/11/30 04:43:08;;;;;;;31.08;16.33;;;;;;;-143.48;95.34;118439.88;5035128;28;20036;-40
2022/11/30 04:45:33;;;;;;;31.80;15.90;;;;;;;-143.48;94.90;118439.88;5034438;28;20487;-40
2022/11/30 04:47:59;;;;;;;33.00;15.98;;;;;;;-143.48;95.39;118439.88;5034673;28;20026;-39
2022/11/30 04:50:24;;;;;;;31.02;15.45;;;;;;;-143.48;95.55;118439.88;5033908;28;20377;-39
2022/11/30 04:52:49;;;;;;;27.45;16.15;;;;;;;-143.48;95.25;118439.88;5033634;28;20037;-39
2022/11/30 04:55:18;;;;;;;29.00;15.55;;;;;;;-143.48;95.84;118439.88;5030870;28;20029;-40
2022/11/30 04:57:44;;;;;;;30.60;14.98;;;;;;;-143.48;95.84;118439.88;5032188;28;20033;-39
2022/11/30 05:00:10;;;;;;;28.80;15.18;;;;;;;-143.48;95.52;118439.88;5032333;28;20029;-39
2022/11/30 05:02:35;;;;;;;27.50;15.18;;;;;;;-143.48;95.98;118439.88;5032345;28;20380;-39
2022/11/30 05:05:00;;;;;;;28.02;15.25;;;;;;;-143.48;96.19;118439.88;5032041;28;20473;-39
2022/11/30 05:07:25;;;;;;;28.15;15.52;;;;;;;-143.48;96.04;118439.88;5031830;28;20112;-39
2022/11/30 05:09:51;;;;;;;33.58;16.35;;;;;;;-143.48;95.94;118439.88;5032586;28;20028;-39
2022/11/30 05:12:16;;;;;;;25.63;14.90;;;;;;;-143.48;95.82;118439.88;5034277;28;20029;-39
2022/11/30 05:14:41;;;;;;;26.50;15.25;;;;;;;-143.48;95.90;118439.88;5034065;28;20519;-40
2022/11/30 05:17:06;;;;;;;26.92;14.60;;;;;;;-143.48;95.75;118439.88;5034125;28;20036;-39
2022/11/30 05:19:32;;;;;;;30.13;15.75;;;;;;;-143.48;96.01;118439.88;5033823;28;20106;-39
2022/11/30 05:21:57;;;;;;;26.42;14.68;;;;;;;-143.48;95.62;118439.88;5033806;28;20033;-39
2022/11/30 05:24:22;;;;;;;32.28;15.55;;;;;;;-143.48;95.47;118439.88;5034134;28;20048;-39
2022/11/30 05:26:48;;;;;;;30.20;14.85;;;;;;;-143.48;95.75;118439.88;5033950;28;20104;-39
2022/11/30 05:29:13;;;;;;;29.00;15.10;;;;;;;-143.48;96.43;118439.88;5033791;28;20380;-39
2022/11/30 05:31:39;;;;;;;29.30;15.77;;;;;;;-143.48;96.24;118439.88;5033686;28;20031;-39
2022/11/30 05:34:05;;;;;;;26.58;15.10;;;;;;;-143.48;96.19;118439.88;5033642;28;20021;-39
2022/11/30 05:36:30;;;;;;;26.98;15.38;;;;;;;-143.48;95.70;118439.88;5033996;28;20026;-39
2022/11/30 05:38:55;;;;;;;30.90;15.30;;;;;;;-143.48;96.37;118439.88;5034118;28;20029;-39
2022/11/30 05:41:20;;;;;;;29.88;15.60;;;;;;;-143.48;96.28;118439.88;5033460;28;20064;-39
2022/11/30 05:43:46;;;;;;;26.90;15.18;;;;;;;-143.48;95.52;118439.88;5033968;28;20031;-39
2022/11/30 05:46:11;;;;;;;27.38;14.80;;;;;;;-143.48;95.98;118439.88;5033358;28;20056;-39
2022/11/30 05:48:37;;;;;;;29.05;15.15;;;;;;;-143.48;96.03;118439.88;5033483;28;20112;-39
2022/11/30 05:51:14;;;;;;;29.77;15.80;;;;;;;-143.48;95.98;118439.88;5033474;28;20105;-39
2022/11/30 05:53:40;;;;;;;27.75;14.73;;;;;;;-143.48;95.77;118439.88;5033680;28;20108;-39
2022/11/30 05:56:11;;;;;;;28.98;15.73;;;;;;;-143.48;96.17;118439.88;5033722;28;20029;-39
2022/11/30 05:58:37;;;;;;;30.20;16.17;;;;;;;-143.48;96.06;118439.88;5033367;28;20067;-39
2022/11/30 06:01:03;;;;;;;28.42;16.10;;;;;;;-143.48;95.99;118439.88;5033754;28;20025;-39
2022/11/30 06:03:29;;;;;;;32.42;15.43;;;;;;;-143.48;95.91;118439.88;5033538;28;20033;-40
2022/11/30 06:05:55;;;;;;;30.13;16.15;;;;;;;-143.48;95.66;118439.88;5033402;28;20396;-39
2022/11/30 06:08:20;;;;;;;29.92;15.38;;;;;;;-143.48;96.03;118439.88;5032990;28;20022;-39
2022/11/30 06:10:46;;;;;;;30.52;15.98;;;;;;;-143.48;96.00;118439.88;5033356;28;20033;-39
2022/11/30 06:13:11;;;;;;;29.15;15.27;;;;;;;-143.48;96.00;118439.88;5036084;28;20048;-39
2022/11/30 06:15:38;;;;;;;34.30;15.40;;;;;;;-143.48;96.00;118439.88;5039880;28;20112;-39
2022/11/30 06:18:04;;;;;;;28.75;15.43;;;;;;;-143.48;95.59;118439.88;5039819;28;20204;-40
2022/11/30 06:20:30;;;;;;;31.58;15.30;;;;;;;-143.48;95.64;118439.88;5039537;28;20032;-39
2022/11/30 06:22:56;;;;;;;28.50;15.70;;;;;;;-143.48;95.85;118439.88;5040097;28;20469;-39
2022/11/30 06:25:22;;;;;;;27.67;15.00;;;;;;;-143.48;95.10;118439.88;5039657;28;20021;-40
2022/11/30 06:27:47;;;;;;;26.33;14.40;;;;;;;-143.48;95.00;118439.88;5039241;28;20060;-40
2022/11/30 06:30:13;;;;;;;23.60;13.43;;;;;;;-143.48;95.18;118439.88;5039366;28;20037;-39
2022/11/30 06:32:38;;;;;;;25.35;14.13;;;;;;;-143.48;94.95;118439.88;5039430;28;20033;-40
2022/11/30 06:35:04;;;;;;;29.40;14.63;;;;;;;-143.48;94.89;118439.88;5039315;28;20456;-39
2022/11/30 06:37:33;;;;;;;27.98;14.02;;;;;;;-143.48;95.46;118439.88;5039257;28;20025;-39
2022/11/30 06:39:58;;;;;;;24.10;14.82;;;;;;;-143.48;95.08;118439.88;5039622;28;20022;-39
2022/11/30 06:42:24;;;;;;;26.48;14.88;;;;;;;-143.48;94.82;118439.88;5039345;28;20040;-39
2022/11/30 06:44:49;;;;;;;31.67;14.25;;;;;;;-143.48;95.54;118439.88;5039569;28;20105;-40
2022/11/30 06:47:14;;;;;;;25.27;14.60;;;;;;;-143.48;95.12;118439.88;5039357;28;20032;-39
2022/11/30 06:49:39;;;;;;;29.83;16.17;;;;;;;-143.48;95.30;118439.88;5039500;28;20025;-39
2022/11/30 06:52:05;;;;;;;27.00;14.40;;;;;;;-143.48;95.72;118439.88;5039252;28;20060;-39
2022/11/30 06:54:30;;;;;;;29.38;15.30;;;;;;;-143.48;95.46;118439.88;5039199;28;20503;-39
2022/11/30 06:56:56;;;;;;;28.58;15.15;;;;;;;-143.48;95.35;118439.88;5039473;28;20078;-39
2022/11/30 06:59:22;;;;;;;23.15;13.93;;;;;;;-143.48;95.09;118439.88;5039440;28;20021;-39
2022/11/30 07:01:47;;;;;;;27.88;14.63;;;;;;;-143.48;95.27;118439.88;5039101;28;20064;-39
2022/11/30 07:04:12;;;;;;;29.98;15.90;;;;;;;-143.48;95.32;118439.88;5039438;28;20025;-39
2022/11/30 07:06:37;;;;;;;28.23;15.35;;;;;;;-143.48;95.55;118439.88;5039329;28;20021;-39
2022/11/30 07:09:03;;;;;;;26.45;14.85;;;;;;;-143.48;95.36;118439.88;5039115;28;20354;-39
2022/11/30 07:11:28;;;;;;;25.90;15.20;;;;;;;-143.48;95.41;118439.88;5038937;28;20033;-40
2022/11/30 07:13:53;;;;;;;24.30;14.55;;;;;;;-143.48;94.90;118439.88;5039338;28;20052;-40
2022/11/30 07:16:19;;;;;;;27.60;15.15;;;;;;;-143.48;94.88;118439.88;5039091;28;20030;-39
2022/11/30 07:18:44;;;;;;;25.98;14.38;;;;;;;-143.48;94.73;118439.88;5036823;28;20048;-39
2022/11/30 07:21:10;;;;;;;27.77;14.75;;;;;;;-143.48;94.84;118439.88;5052257;28;20486;-39
2022/11/30 07:26:19;;;;;;;27.50;15.05;;;;;;;-143.48;95.09;118439.88;5034791;28;20088;-41
2022/11/30 07:28:49;;;;;;;28.25;14.95;;;;;;;-143.48;95.21;118439.88;5035283;28;20074;-39
2022/11/30 07:31:22;;;;;;;34.80;15.45;;;;;;;-143.48;95.08;118439.88;5033650;28;20049;-39
2022/11/30 07:33:48;;;;;;;34.13;15.43;;;;;;;-143.48;94.84;118439.88;5035912;28;20052;-39
2022/11/30 07:36:15;;;;;;;26.73;15.15;;;;;;;-143.48;94.82;118439.88;5036044;28;20021;-39
2022/11/30 07:38:41;;;;;;;27.52;14.27;;;;;;;-143.48;94.92;118439.88;5036029;28;20113;-39
2022/11/30 07:41:06;;;;;;;26.08;14.85;;;;;;;-143.48;94.60;118439.88;5035478;28;20100;-39
2022/11/30 07:43:32;;;;;;;27.80;15.32;;;;;;;-143.48;94.47;118439.88;5035123;28;20025;-39
2022/11/30 07:45:58;;;;;;;28.42;15.40;;;;;;;-143.48;94.48;118439.88;5035914;28;20037;-39
2022/11/30 07:48:24;;;;;;;27.30;15.25;;;;;;;-143.48;94.43;118439.88;5035601;28;20025;-39
2022/11/30 07:50:49;;;;;;;28.85;14.70;;;;;;;-143.48;93.92;118439.88;5034730;28;20031;-39
2022/11/30 07:53:15;;;;;;;27.60;15.07;;;;;;;-143.48;94.49;118439.88;5036004;28;20056;-39
2022/11/30 07:55:41;;;;;;;34.45;15.48;;;;;;;-143.48;94.71;118439.88;5035778;28;20021;-39
2022/11/30 07:58:08;;;;;;;45.33;16.85;;;;;;;-143.48;93.91;118439.88;5035467;28;20472;-39
2022/11/30 08:00:35;;;;;;;52.80;16.17;;;;;;;-143.48;94.01;118439.88;5035636;28;20065;-40
2022/11/30 08:03:00;;;;;;;43.05;16.45;;;;;;;-143.48;94.33;118439.88;5035028;28;20036;-39
2022/11/30 08:05:25;;;;;;;32.13;15.80;;;;;;;-143.48;94.42;118439.88;5035331;28;20029;-39
2022/11/30 08:07:52;;;;;;;35.60;16.02;;;;;;;-143.48;94.36;118439.88;5035028;28;20357;-39
2022/11/30 08:10:19;;;;;;;33.10;15.60;;;;;;;-143.48;94.44;118439.88;5035358;28;20499;-39
2022/11/30 08:12:44;;;;;;;30.23;15.73;;;;;;;-143.48;94.63;118439.88;5034123;28;20021;-40
2022/11/30 08:15:10;;;;;;;30.02;15.27;;;;;;;-143.48;94.20;118439.88;5033502;28;20029;-39
2022/11/30 08:17:35;;;;;;;31.35;15.95;;;;;;;-143.48;94.06;118439.88;5034496;28;20032;-39
2022/11/30 08:20:00;;;;;;;33.17;16.55;;;;;;;-143.48;94.02;118439.88;5034147;28;20063;-39
2022/11/30 08:22:26;;;;;;;36.42;17.60;;;;;;;-143.48;93.72;118439.88;5033947;28;20033;-40
2022/11/30 08:24:51;;;;;;;30.90;16.83;;;;;;;-143.48;93.93;118439.88;5034431;28;20025;-39
2022/11/30 08:27:17;;;;;;;28.98;16.63;;;;;;;-143.48;93.89;118439.88;5034234;28;20465;-39
2022/11/30 08:29:42;;;;;;;34.83;17.33;;;;;;;-143.48;94.21;118439.88;5034523;28;20528;-40
2022/11/30 08:32:07;;;;;;;27.48;15.35;;;;;;;-143.48;94.12;118439.88;5034871;28;20022;-40
2022/11/30 08:34:32;;;;;;;29.50;16.42;;;;;;;-143.48;94.25;118439.88;5034761;28;20460;-40
2022/11/30 08:36:58;;;;;;;28.23;15.50;;;;;;;-143.48;94.10;118439.88;5035001;28;20025;-40
2022/11/30 08:39:23;;;;;;;31.35;15.68;;;;;;;-143.48;94.03;118439.88;5034628;28;20175;-40
2022/11/30 08:41:48;;;;;;;30.65;15.02;;;;;;;-143.48;93.94;118439.88;5034757;28;20033;-39
2022/11/30 08:44:14;;;;;;;28.80;15.18;;;;;;;-143.48;94.11;118439.88;5034672;28;20025;-39
2022/11/30 08:46:39;;;;;;;26.67;14.55;;;;;;;-143.48;94.51;118439.88;5034545;28;20033;-39
2022/11/30 08:49:04;;;;;;;30.17;15.00;;;;;;;-143.48;93.76;118439.88;5034231;28;20024;-39
2022/11/30 08:51:29;;;;;;;28.85;15.55;;;;;;;-143.48;93.91;118439.88;5034577;28;20101;-39
2022/11/30 08:53:56;;;;;;;28.23;15.70;;;;;;;-143.48;93.89;118439.88;5033156;28;20439;-39
2022/11/30 08:56:22;;;;;;;29.50;16.02;;;;;;;-143.48;94.25;118439.88;5034209;28;20427;-40
2022/11/30 08:58:48;;;;;;;28.40;15.35;;;;;;;-143.48;93.76;118439.88;5032713;28;20026;-40
2022/11/30 09:01:17;;;;;;;30.85;15.55;;;;;;;-143.48;94.40;118439.88;5034389;28;20460;-40
2022/11/30 09:03:44;;;;;;;28.88;15.27;;;;;;;-143.48;93.89;118439.88;5034280;28;20056;-40
2022/11/30 09:06:12;;;;;;;31.60;16.10;;;;;;;-143.48;93.55;118439.88;5034138;28;20460;-40
2022/11/30 09:08:38;;;;;;;26.05;14.50;;;;;;;-143.48;93.55;118439.88;5032891;28;20017;-40
2022/11/30 09:11:27;;;;;;;27.08;15.15;;;;;;;-143.48;93.43;118439.88;5032664;28;20033;-40
2022/11/30 09:13:54;;;;;;;37.78;15.68;;;;;;;-143.48;93.48;118439.88;5034181;28;20029;-40
2022/11/30 09:16:21;;;;;;;31.17;15.52;;;;;;;-143.48;93.14;118439.88;5034237;28;20456;-40
2022/11/30 09:18:47;;;;;;;29.00;15.10;;;;;;;-143.48;92.75;118439.88;5033841;28;20087;-40
2022/11/30 09:21:15;;;;;;;31.42;15.98;;;;;;;-143.48;93.25;118439.88;5033689;28;20029;-40
2022/11/30 09:23:41;;;;;;;33.42;15.40;;;;;;;-143.48;93.16;118439.88;5033796;28;20033;-40
2022/11/30 09:26:11;;;;;;;27.10;15.25;;;;;;;-143.48;93.17;118439.88;5034040;28;20033;-40
2022/11/30 09:28:37;;;;;;;33.00;16.15;;;;;;;-143.48;92.64;118439.88;5033797;28;20100;-40
2022/11/30 09:31:10;;;;;;;29.30;16.05;;;;;;;-143.48;91.72;118439.88;5033590;28;20519;-40
2022/11/30 09:33:36;;;;;;;30.38;15.63;;;;;;;-143.48;91.79;118439.88;5032440;28;20032;-40
2022/11/30 09:36:04;;;;;;;29.77;15.60;;;;;;;-143.48;91.18;118439.88;5033626;28;20029;-40
2022/11/30 09:38:30;;;;;;;28.40;15.40;;;;;;;-143.48;90.97;118439.88;5033471;28;20021;-40
2022/11/30 09:40:58;;;;;;;29.42;16.02;;;;;;;-143.48;91.02;118439.88;5033607;28;20135;-40
2022/11/30 09:43:30;;;;;;;28.20;15.32;;;;;;;-143.48;91.25;118439.88;5033121;28;20026;-40
2022/11/30 09:46:01;;;;;;;35.33;16.15;;;;;;;-143.48;90.22;118439.88;5031326;28;20075;-40
2022/11/30 09:48:50;;;;;;;30.42;16.15;;;;;;;-143.48;90.62;118439.88;5030848;28;20041;-40
2022/11/30 09:51:25;;;;;;;28.40;16.67;;;;;;;-143.48;90.45;118439.88;5031287;28;20025;-40
2022/11/30 09:53:56;;;;;;;30.13;16.38;;;;;;;-143.48;90.37;118439.88;5031431;28;20025;-40
2022/11/30 09:56:29;;;;;;;29.35;16.23;;;;;;;-143.48;89.54;118439.88;5031718;28;20049;-40
2022/11/30 09:59:12;;;;;;;28.23;15.90;;;;;;;-143.48;88.95;118439.88;5032231;28;20040;-40
2022/11/30 10:01:38;;;;;;;27.30;15.65;;;;;;;-143.48;83.59;118439.88;5033406;28;20112;-40
2022/11/30 10:04:04;;;;;;;31.10;14.82;;;;;;;-143.48;82.36;118439.88;5033349;28;20100;-40
2022/11/30 10:06:52;;;;;;;25.08;15.43;;;;;;;-143.48;71.53;118439.88;5032118;28;20082;-40
2022/11/30 10:09:35;;;;;;;27.08;14.93;;;;;;;-143.48;67.71;118439.88;5033736;28;20104;-40
2022/11/30 10:12:07;;;;;;;22.73;14.90;;;;;;;-143.48;73.84;118439.88;5030737;28;20030;-39
2022/11/30 10:15:05;;;;;;;23.88;15.07;;;;;;;-143.48;79.99;118439.88;5032883;28;20033;-39
2022/11/30 10:17:42;;;;;;;26.45;15.18;;;;;;;-143.48;80.39;118439.88;5032337;28;20484;-40
2022/11/30 10:20:36;;;;;;;24.60;15.40;;;;;;;-143.48;83.38;118439.88;5032946;28;20028;-39
2022/11/30 10:23:23;;;;;;;25.30;15.32;;;;;;;-143.48;84.55;118439.88;5033077;28;20032;-40
2022/11/30 10:26:07;;;;;;;26.08;16.05;;;;;;;-143.48;85.13;118439.88;5033087;28;20543;-40
2022/11/30 10:28:53;;;;;;;28.58;15.98;;;;;;;-143.48;84.55;118439.88;5031703;28;20048;-39
2022/11/30 10:31:39;;;;;;;25.35;14.93;;;;;;;-143.48;84.98;118439.88;5032585;28;20054;-39
2022/11/30 10:34:22;;;;;;;27.42;15.13;;;;;;;-143.48;83.98;118439.88;5032945;28;20026;-39
2022/11/30 10:37:00;;;;;;;25.88;15.82;;;;;;;-143.48;86.77;118439.88;5032333;28;20016;-40
2022/11/30 10:39:32;;;;;;;25.85;15.82;;;;;;;-143.48;86.66;118439.88;5030663;28;20029;-40
2022/11/30 10:42:11;;;;;;;26.90;15.93;;;;;;;-143.48;87.44;118439.88;5031140;28;20022;-39
2022/11/30 10:44:51;;;;;;;38.00;17.27;;;;;;;-143.48;87.84;118439.88;5031835;28;20037;-39
2022/11/30 10:47:22;;;;;;;27.75;16.23;;;;;;;-143.48;86.78;118439.88;5032174;28;20052;-40
2022/11/30 10:49:51;;;;;;;28.92;16.83;;;;;;;-143.48;86.99;118439.88;5031262;28;20029;-40
2022/11/30 10:52:25;;;;;;;27.90;16.90;;;;;;;-143.48;87.00;118439.88;5032600;28;20032;-39
2022/11/30 10:54:54;;;;;;;31.33;17.25;;;;;;;-143.48;85.91;118439.88;5032764;28;20052;-40
2022/11/30 10:57:21;;;;;;;32.35;17.20;;;;;;;-143.48;86.20;118439.88;5032964;28;20025;-40
2022/11/30 10:59:50;;;;;;;27.42;16.13;;;;;;;-143.48;85.48;118439.88;5034860;28;20021;-40
2022/11/30 11:02:35;;;;;;;28.95;17.50;;;;;;;-143.48;85.78;118439.88;5036449;28;20156;-40